createdAt,value
2023-01-09T00:00:14.515Z,6.57
2023-01-09T00:03:32.449Z,6.59
2023-01-09T00:06:34.919Z,6.50
2023-01-09T00:09:54.665Z,6.60
2023-01-09T00:12:59.325Z,6.63
2023-01-09T00:16:15.446Z,6.68
2023-01-09T00:19:23.907Z,6.74
2023-01-09T00:22:38.330Z,6.81
2023-01-09T00:25:52.667Z,6.90
2023-01-09T00:29:36.786Z,6.93
2023-01-09T00:33:15.632Z,6.61
2023-01-09T00:37:07.982Z,7.07
2023-01-09T00:40:24.421Z,7.19
2023-01-09T00:51:22.556Z,7.33
2023-01-09T00:59:00.456Z,7.44
2023-01-09T01:02:28.459Z,7.44
2023-01-09T01:06:02.430Z,7.43
2023-01-09T01:09:23.491Z,7.41
2023-01-09T01:12:38.800Z,7.50
2023-01-09T01:16:04.500Z,7.49
2023-01-09T01:19:33.361Z,7.46
2023-01-09T01:39:33.667Z,7.57
2023-01-09T01:58:45.543Z,7.89
2023-01-09T02:02:32.669Z,7.87
2023-01-09T02:09:48.018Z,8.03
2023-01-09T02:13:19.879Z,8.02
2023-01-09T02:17:18.405Z,8.03
2023-01-09T02:28:29.930Z,8.24
2023-01-09T02:32:02.713Z,8.25
2023-01-09T02:36:05.544Z,8.28
2023-01-09T02:42:58.579Z,8.22
2023-01-09T02:46:29.522Z,8.25
2023-01-09T02:50:10.493Z,8.15
2023-01-09T02:57:53.595Z,8.17
2023-01-09T03:01:17.338Z,8.06
2023-01-09T03:08:29.523Z,8.13
2023-01-09T03:11:44.116Z,8.05
2023-01-09T03:15:51.240Z,8.05
2023-01-09T03:19:27.450Z,8.02
2023-01-09T03:22:29.421Z,7.96
2023-01-09T03:29:37.772Z,8.04
2023-01-09T03:37:23.588Z,8.04
2023-01-09T03:40:38.896Z,8.02
2023-01-09T03:48:19.494Z,8.03
2023-01-09T03:51:28.385Z,8.01
2023-01-09T03:59:22.664Z,8.01
2023-01-09T04:02:35.188Z,8.01
2023-01-09T04:05:45.727Z,8.08
2023-01-09T04:08:54.094Z,8.14
2023-01-09T04:12:02.480Z,8.11
2023-01-09T04:15:44.498Z,8.09
2023-01-09T04:18:53.025Z,7.59
2023-01-09T04:22:09.855Z,8.06
2023-01-09T04:25:34.998Z,7.81
2023-01-09T04:29:06.499Z,7.86
2023-01-09T04:36:19.341Z,8.05
2023-01-09T04:39:54.412Z,8.06
2023-01-09T04:56:08.374Z,8.05
2023-01-09T05:00:11.425Z,8.03
2023-01-09T05:07:17.867Z,7.91
2023-01-09T05:11:15.886Z,7.94
2023-01-09T05:31:41.627Z,7.52
2023-01-09T05:38:49.580Z,7.90
2023-01-09T05:42:25.179Z,7.86
2023-01-09T05:57:01.581Z,8.02
2023-01-09T06:00:12.940Z,8.08
2023-01-09T06:07:32.468Z,7.96
2023-01-09T06:11:10.533Z,7.99
2023-01-09T06:18:26.481Z,8.05
2023-01-09T06:21:41.529Z,8.14
2023-01-09T06:33:01.262Z,8.78
2023-01-09T06:36:36.922Z,8.07
2023-01-09T06:39:54.227Z,7.89
2023-01-09T06:47:17.476Z,8.05
2023-01-09T06:50:25.909Z,8.05
2023-01-09T06:57:57.282Z,8.00
2023-01-09T07:05:54.767Z,7.95
2023-01-09T07:09:06.009Z,7.94
2023-01-09T07:32:05.032Z,7.33
2023-01-09T10:35:06.682Z,6.22
2023-01-09T10:54:45.624Z,6.48
2023-01-09T13:03:03.614Z,6.51
2023-01-09T15:25:45.450Z,7.07
2023-01-09T15:34:12.783Z,6.71
2023-01-09T15:42:14.080Z,7.08
2023-01-09T15:49:49.232Z,7.06
2023-01-09T15:53:39.148Z,7.06
2023-01-09T16:16:34.353Z,6.89
2023-01-09T16:23:58.777Z,6.35
2023-01-09T16:27:40.860Z,6.81
2023-01-09T19:17:41.319Z,6.73
2023-01-09T19:20:51.089Z,6.68
2023-01-09T19:24:07.233Z,6.72
2023-01-09T19:31:37.301Z,6.70
2023-01-09T19:34:52.182Z,6.71
2023-01-09T19:38:00.811Z,6.68
2023-01-09T19:41:20.216Z,6.61
2023-01-09T19:44:29.006Z,6.63
2023-01-09T19:47:40.208Z,6.61
2023-01-09T19:50:49.115Z,6.60
2023-01-09T19:54:03.193Z,6.60
2023-01-09T19:57:11.789Z,6.58
2023-01-09T20:00:21.277Z,6.57
2023-01-09T20:03:29.856Z,6.57
2023-01-09T20:06:40.320Z,6.52
2023-01-09T20:09:53.068Z,6.40
2023-01-09T20:13:02.202Z,6.37
2023-01-09T20:16:23.282Z,6.25
2023-01-09T20:19:42.289Z,6.62
2023-01-09T20:23:38.217Z,6.65
2023-01-09T20:26:40.179Z,6.66
2023-01-09T20:29:55.249Z,6.65
2023-01-09T20:32:59.353Z,6.67
2023-01-09T20:36:17.257Z,6.68
2023-01-09T20:39:21.255Z,6.64
2023-01-09T20:42:41.226Z,6.39
2023-01-09T20:45:43.279Z,6.69
2023-01-09T20:53:01.243Z,6.70
2023-01-09T20:56:16.245Z,6.28
2023-01-09T20:59:28.228Z,6.70
2023-01-09T21:02:44.561Z,6.69
2023-01-09T21:06:02.241Z,6.63
2023-01-09T21:09:26.315Z,6.66
2023-01-09T21:12:30.391Z,6.40
2023-01-09T21:15:48.725Z,6.68
2023-01-09T21:23:10.231Z,6.67
2023-01-09T21:26:29.302Z,6.67
2023-01-09T21:29:39.008Z,6.71
2023-01-09T21:32:47.212Z,6.68
2023-01-09T21:36:12.282Z,6.50
2023-01-09T21:39:35.629Z,6.70
2023-01-09T21:42:37.366Z,6.53
2023-01-09T21:45:57.316Z,6.28
2023-01-09T21:49:06.741Z,6.74
2023-01-09T21:52:16.284Z,6.72
2023-01-09T21:55:31.356Z,6.71
2023-01-09T21:58:33.323Z,6.71
2023-01-09T22:01:50.290Z,6.69
2023-01-09T22:04:58.254Z,6.38
2023-01-09T22:08:07.001Z,6.71
2023-01-09T22:11:16.290Z,6.42
2023-01-09T22:14:25.245Z,6.72
2023-01-09T22:17:42.305Z,6.74
2023-01-09T22:20:52.353Z,6.64
2023-01-09T22:24:02.013Z,6.71
2023-01-09T22:27:10.235Z,6.72
2023-01-09T22:30:25.221Z,6.72
2023-01-09T22:33:40.328Z,6.71
2023-01-09T22:36:55.313Z,6.70
2023-01-09T22:39:58.209Z,6.71
2023-01-09T22:43:13.307Z,6.16
2023-01-09T22:46:15.549Z,6.71
2023-01-09T22:49:33.551Z,6.72
2023-01-09T22:52:43.035Z,6.69
2023-01-09T22:56:09.261Z,6.66
2023-01-09T22:59:20.146Z,6.66
2023-01-09T23:02:29.629Z,6.62
2023-01-09T23:05:39.422Z,6.40
2023-01-09T23:08:56.201Z,6.59
2023-01-09T23:12:07.363Z,6.59
2023-01-09T23:15:15.829Z,6.51
2023-01-09T23:18:24.237Z,6.55
2023-01-09T23:21:32.958Z,6.56
2023-01-09T23:24:41.258Z,6.48
2023-01-09T23:27:52.285Z,6.58
2023-01-09T23:31:01.384Z,6.59
2023-01-09T23:34:18.635Z,6.57
2023-01-09T23:37:33.256Z,6.55
2023-01-09T23:40:36.169Z,6.59
2023-01-09T23:43:52.369Z,6.61
2023-01-09T23:46:54.283Z,6.63
2023-01-09T23:50:09.268Z,6.63
2023-01-09T23:53:11.740Z,6.60
2023-01-09T23:56:26.229Z,6.66
2023-01-09T23:59:27.947Z,6.60
